Amqui, Quebec

2:47 PM AST on November 23, 2014 (GMT -0400)
Camping et marina | Change Station
CLOSE
Current Station
Personal Weather Station
Location: Val-Brillant, QUEBEC
Elevation: 510 ft
Nearby Weather Stations

Elev 510 ft 48.53 °N, 67.55 °W | Updated 16 seconds ago

Mostly Cloudy
Mostly Cloudy
33.4 °F
Feels Like 30 °F
N
4.0
Wind Variable Wind from WSW
Gusts 8.1 mph

Today is forecast to be nearly the same temperature as yesterday.

Today
High -- | Low -- °F
--% Chance of Precip.
Yesterday
High -- | Low -- °F
Precip. -- in
7:49 AM 4:42 PM
New Moon, 2% visible
Pressure 30.00 in
Visibility 30.0 miles
Clouds Mostly Cloudy 2500 ft
Windchill 30 °F
Dew Point 10 °F
Humidity 38%
Rainfall 0.00 in
Snow Depth Not available.
UV 1 out of 12
Pollen Not available.
Air Quality Not available.
Flu Activity Not available.
METAR CYYY 231800Z 11002KT 30SM BKN025 M00/M05 A2999 RMK SC7 SLP157

More Conditions Fewer Conditions

Pressure 30.00 in
Visibility 30.0 miles
Clouds Mostly Cloudy 2500 ft
Windchill 30 °F
Dew Point 10 °F
Humidity 38%
Rainfall 0.00 in
Snow Depth Not available.
UV 1 out of 12
Pollen Not available.
Air Quality Not available.
Flu Activity Not available.
METAR CYYY 231800Z 11002KT 30SM BKN025 M00/M05 A2999 RMK SC7 SLP157

More Conditions Fewer Conditions

10-Day Weather Forecast

Almanac

Astronomy

Nov. 23, 2014 Rise Set
Actual Time
Civil Twilight
Nautical Twilight
Astronomical Twilight
Moon
Length of Visible Light
Length of Day
Tomorrow will be .
, % of the Moon is Illuminated

Today's Extremes

Country Highs Country Lows

Community

WunderPhotos

Upload Photos

1,773,127 photos uploaded!

WunderBlogs® & News

Nearby

Air Quality

  Air Quality AQ Index Pollutant
Not available.

Snow Depth

Station Depth Elevation

Earthquake Activity

City Distance Mag. Time & Date
Minimum magnitude displayed is 2.5.

Coastal Water Temperatures

Place Temperature

Nearby Weather Stations